Terminal Aerodrome Forecast
Issued by NWS

Home | Current Version | Previous Version | Text Only | Print | Product List | Glossary On
Versions: 1 2 3 4 5 6 7 8 9 10 11 12 13 14 15
000
FTUS43 KMQT 290800 AAA
TAFCMX
TAF AMD
KCMX 290815Z 2908/3006 30013KT 4SM -SHSN SCT015 OVC025
      TEMPO 2908/2912 1 1/2SM -SHSN
     FM291500 32011G17KT 5SM -SHSN OVC025=

USA.gov is the U.S. government's official web portal to all federal, state and local government web resources and services.